createdAt,value
2018-03-27T00:01:55.054Z,32.77
2018-03-27T00:06:56.271Z,30.50
2018-03-27T00:11:56.723Z,35.90
2018-03-27T00:16:57.175Z,34.60
2018-03-27T00:21:58.388Z,36.00
2018-03-27T00:27:00.296Z,35.50
2018-03-27T00:32:12.668Z,29.07
2018-03-27T00:37:25.015Z,39.37
2018-03-27T00:42:34.196Z,37.27
2018-03-27T00:47:34.677Z,33.33
2018-03-27T00:52:35.388Z,33.73
2018-03-27T00:57:36.603Z,33.00
2018-03-27T01:02:37.047Z,32.77
2018-03-27T01:07:38.260Z,34.53
2018-03-27T01:12:38.703Z,32.00
2018-03-27T01:17:39.158Z,31.97
2018-03-27T01:22:39.613Z,39.27
2018-03-27T01:27:40.080Z,33.60
2018-03-27T01:32:40.528Z,39.37
2018-03-27T01:37:40.975Z,35.93
2018-03-27T01:42:42.193Z,33.47
2018-03-27T01:47:42.643Z,36.20
2018-03-27T01:52:43.155Z,40.83
2018-03-27T01:57:43.729Z,36.40
2018-03-27T02:02:44.202Z,33.83
2018-03-27T02:07:44.652Z,32.20
2018-03-27T02:12:50.655Z,35.27
2018-03-27T02:17:56.807Z,32.53
2018-03-27T02:23:11.083Z,32.73
2018-03-27T02:28:11.536Z,39.93
2018-03-27T02:33:11.980Z,34.70
2018-03-27T02:38:13.193Z,37.40
2018-03-27T02:43:13.636Z,43.10
2018-03-27T02:48:14.848Z,30.60
2018-03-27T02:53:15.340Z,42.67
2018-03-27T02:58:15.792Z,43.07
2018-03-27T03:03:16.240Z,42.07
2018-03-27T03:08:17.476Z,42.13
2018-03-27T03:13:18.022Z,35.40
2018-03-27T03:18:19.224Z,38.93
2018-03-27T03:23:19.668Z,38.80
2018-03-27T03:28:20.935Z,41.83
2018-03-27T03:33:21.319Z,35.13
2018-03-27T03:38:22.563Z,37.10
2018-03-27T03:43:23.032Z,34.00
2018-03-27T03:48:23.507Z,35.77
2018-03-27T03:53:23.951Z,32.07
2018-03-27T03:58:24.409Z,42.13
2018-03-27T04:03:25.635Z,39.07
2018-03-27T04:08:26.080Z,40.77
2018-03-27T04:13:26.583Z,41.50
2018-03-27T04:18:27.032Z,43.57
2018-03-27T04:23:27.520Z,39.17
2018-03-27T04:28:27.996Z,37.37
2018-03-27T04:33:28.464Z,42.30
2018-03-27T04:38:28.935Z,40.63
2018-03-27T04:43:29.388Z,39.10
2018-03-27T04:48:29.863Z,38.30
2018-03-27T04:53:30.316Z,44.43
2018-03-27T04:58:31.528Z,34.13
2018-03-27T05:03:31.976Z,36.17
2018-03-27T05:08:33.191Z,41.63
2018-03-27T05:13:33.646Z,39.27
2018-03-27T05:18:34.103Z,28.90
2018-03-27T05:23:35.323Z,39.53
2018-03-27T05:28:35.767Z,38.03
2018-03-27T05:33:36.980Z,41.53
2018-03-27T05:38:37.456Z,46.77
2018-03-27T05:43:38.645Z,42.70
2018-03-27T05:48:39.110Z,44.90
2018-03-27T05:53:40.307Z,46.63
2018-03-27T05:58:40.764Z,38.27
2018-03-27T06:03:41.215Z,43.60
2018-03-27T06:08:42.431Z,39.67
2018-03-27T06:13:42.881Z,45.20
2018-03-27T06:18:44.099Z,46.20
2018-03-27T06:23:44.547Z,40.07
2018-03-27T06:28:45.761Z,42.13
2018-03-27T06:33:46.214Z,46.10
2018-03-27T06:38:46.652Z,42.07
2018-03-27T06:43:47.105Z,44.63
2018-03-27T06:48:47.558Z,46.13
2018-03-27T06:53:48.000Z,41.13
2018-03-27T06:58:48.448Z,41.00
2018-03-27T07:03:48.904Z,41.77
2018-03-27T07:08:49.363Z,43.03
2018-03-27T07:13:49.904Z,41.03
2018-03-27T07:18:50.293Z,37.03
2018-03-27T07:23:50.736Z,40.93
2018-03-27T07:28:51.187Z,37.63
2018-03-27T07:33:52.401Z,37.30
2018-03-27T07:38:52.847Z,47.03
2018-03-27T07:43:54.060Z,43.67
2018-03-27T07:48:54.508Z,38.83
2018-03-27T07:53:55.727Z,40.50
2018-03-27T07:58:56.167Z,39.13
2018-03-27T08:03:57.382Z,37.03
2018-03-27T08:08:57.827Z,37.50
2018-03-27T08:13:59.043Z,38.53
2018-03-27T08:18:59.493Z,35.13
2018-03-27T08:24:00.713Z,36.97
2018-03-27T08:29:01.148Z,37.27
2018-03-27T08:34:02.361Z,34.00
2018-03-27T08:39:02.812Z,38.53
2018-03-27T08:44:04.069Z,37.70
2018-03-27T08:49:04.536Z,38.57
2018-03-27T08:54:05.796Z,35.73
2018-03-27T08:59:06.279Z,38.20
2018-03-27T09:04:06.732Z,37.07
2018-03-27T09:09:07.183Z,33.17
2018-03-27T09:14:10.296Z,41.87
2018-03-27T09:19:10.735Z,31.37
2018-03-27T09:24:11.183Z,38.37
2018-03-27T09:29:11.636Z,36.43
2018-03-27T09:34:12.848Z,34.27
2018-03-27T09:39:13.300Z,35.53
2018-03-27T09:44:14.511Z,32.47
2018-03-27T09:49:14.963Z,33.47
2018-03-27T09:54:16.281Z,33.70
2018-03-27T09:59:16.729Z,30.70
2018-03-27T10:04:17.180Z,31.63
2018-03-27T10:09:19.115Z,28.97
2018-03-27T10:14:19.565Z,30.97
2018-03-27T10:19:20.801Z,29.37
2018-03-27T10:24:21.364Z,30.37
2018-03-27T10:29:21.811Z,30.83
2018-03-27T10:34:22.269Z,29.60
2018-03-27T10:39:23.491Z,23.63
2018-03-27T10:44:23.944Z,28.27
2018-03-27T10:49:24.464Z,29.87
2018-03-27T10:54:24.924Z,26.00
2018-03-27T10:59:25.405Z,28.93
2018-03-27T11:04:25.820Z,51.40
2018-03-27T11:09:27.065Z,26.67
2018-03-27T11:14:27.522Z,24.93
2018-03-27T11:19:29.448Z,24.17
2018-03-27T11:24:30.664Z,26.07
2018-03-27T11:29:31.216Z,19.70
2018-03-27T11:34:31.667Z,19.27
2018-03-27T11:39:34.572Z,19.07
2018-03-27T11:44:35.846Z,18.77
2018-03-27T11:49:37.068Z,21.50
2018-03-27T11:54:37.592Z,21.20
2018-03-27T11:59:39.014Z,20.87
2018-03-27T12:04:40.231Z,21.70
2018-03-27T12:09:40.684Z,15.77
2018-03-27T12:16:46.028Z,18.70
2018-03-27T12:21:46.483Z,17.90
2018-03-27T12:26:46.932Z,16.90
2018-03-27T12:31:48.148Z,17.77
2018-03-27T12:36:48.600Z,17.17
2018-03-27T12:41:49.051Z,20.57
2018-03-27T12:50:23.181Z,19.47
2018-03-27T12:55:23.639Z,17.27
2018-03-27T13:00:24.855Z,19.60
2018-03-27T13:05:25.320Z,16.70
2018-03-27T13:10:25.767Z,19.37
2018-03-27T13:15:26.987Z,17.70
2018-03-27T13:20:27.439Z,20.30
2018-03-27T13:25:27.891Z,16.40
2018-03-27T13:30:29.115Z,16.93
2018-03-27T13:35:29.563Z,15.57
2018-03-27T13:40:30.866Z,17.73
2018-03-27T13:45:32.068Z,17.47
2018-03-27T13:50:32.523Z,15.50
2018-03-27T13:55:32.963Z,14.40
2018-03-27T14:00:34.184Z,16.67
2018-03-27T14:05:34.642Z,18.37
2018-03-27T14:10:35.887Z,21.43
2018-03-27T14:15:36.316Z,16.87
2018-03-27T14:20:36.772Z,20.37
2018-03-27T14:25:37.997Z,19.90
2018-03-27T14:30:38.504Z,19.53
2018-03-27T14:35:38.903Z,18.63
2018-03-27T14:40:40.120Z,18.53
2018-03-27T14:45:40.591Z,17.60
2018-03-27T14:50:41.043Z,18.50
2018-03-27T14:55:41.496Z,22.73
2018-03-27T15:00:42.712Z,14.13
2018-03-27T15:05:43.220Z,17.40
2018-03-27T15:10:43.888Z,14.63
2018-03-27T15:15:45.216Z,15.03
2018-03-27T15:20:46.437Z,15.43
2018-03-27T15:25:46.905Z,14.93
2018-03-27T15:30:47.356Z,14.20
2018-03-27T15:35:48.584Z,12.63
2018-03-27T15:40:49.039Z,19.53
2018-03-27T15:45:49.491Z,14.50
2018-03-27T15:50:50.712Z,10.77
2018-03-27T15:55:51.173Z,15.10
2018-03-27T16:00:51.620Z,11.83
2018-03-27T16:05:52.837Z,12.70
2018-03-27T16:10:53.279Z,11.60
2018-03-27T16:15:54.487Z,15.47
2018-03-27T16:20:56.994Z,12.70
2018-03-27T16:25:58.283Z,8.50
2018-03-27T16:30:58.679Z,15.97
2018-03-27T16:35:59.128Z,14.90
2018-03-27T16:41:00.345Z,15.33
2018-03-27T16:46:00.794Z,13.33
2018-03-27T16:51:02.000Z,8.57
2018-03-27T16:56:02.469Z,9.17
2018-03-27T17:01:02.891Z,14.33
2018-03-27T17:06:05.048Z,13.50
2018-03-27T17:11:05.730Z,14.67
2018-03-27T17:16:06.474Z,9.17
2018-03-27T17:21:07.948Z,12.00
2018-03-27T17:26:08.844Z,11.10
2018-03-27T17:31:09.564Z,11.53
2018-03-27T17:36:10.143Z,14.50
2018-03-27T17:41:10.780Z,7.60
2018-03-27T17:46:11.256Z,6.93
2018-03-27T17:51:11.692Z,7.20
2018-03-27T17:56:12.136Z,8.23
2018-03-27T18:01:12.587Z,19.17
2018-03-27T18:06:13.807Z,16.07
2018-03-27T18:11:14.264Z,17.90
2018-03-27T18:16:27.650Z,16.37
2018-03-27T18:21:28.089Z,18.90
2018-03-27T18:26:29.368Z,16.77
2018-03-27T18:31:29.758Z,17.93
2018-03-27T18:36:30.979Z,17.27
2018-03-27T18:41:31.428Z,18.97
2018-03-27T18:46:32.640Z,22.13
2018-03-27T18:51:33.104Z,16.53
2018-03-27T18:56:33.584Z,19.77
2018-03-27T19:01:34.044Z,14.03
2018-03-27T19:06:34.592Z,13.10
2018-03-27T19:11:35.033Z,12.63
2018-03-27T19:16:35.475Z,11.40
2018-03-27T19:21:35.915Z,18.27
2018-03-27T19:26:37.143Z,21.03
2018-03-27T19:31:37.596Z,21.20
2018-03-27T19:36:38.065Z,19.00
2018-03-27T19:41:39.267Z,13.63
2018-03-27T19:46:39.729Z,10.33
2018-03-27T19:51:40.172Z,17.03
2018-03-27T19:56:41.383Z,15.27
2018-03-27T20:01:41.828Z,14.30
2018-03-27T20:06:42.279Z,11.00
2018-03-27T20:11:42.729Z,16.67
2018-03-27T20:16:43.176Z,11.97
2018-03-27T20:21:43.620Z,21.13
2018-03-27T20:26:44.835Z,19.83
2018-03-27T20:31:45.289Z,19.97
2018-03-27T20:36:46.500Z,22.97
2018-03-27T20:41:46.962Z,17.57
2018-03-27T20:46:48.167Z,21.27
2018-03-27T20:51:48.624Z,21.53
2018-03-27T20:56:49.887Z,18.93
2018-03-27T21:01:50.331Z,18.47
2018-03-27T21:06:50.779Z,19.03
2018-03-27T21:11:51.235Z,15.17
2018-03-27T21:16:51.675Z,17.30
2018-03-27T21:21:52.892Z,15.10
2018-03-27T21:26:53.336Z,15.63
2018-03-27T21:31:54.552Z,14.97
2018-03-27T21:36:54.999Z,14.33
2018-03-27T21:41:56.212Z,15.10
2018-03-27T21:46:56.664Z,15.80
2018-03-27T21:51:57.873Z,13.80
2018-03-27T21:56:58.329Z,15.03
2018-03-27T22:01:59.538Z,12.23
2018-03-27T22:06:59.983Z,12.93
2018-03-27T22:12:01.195Z,11.80
2018-03-27T22:17:01.665Z,12.93
2018-03-27T22:22:02.110Z,9.63
2018-03-27T22:27:03.336Z,11.30
2018-03-27T22:32:03.796Z,11.90
2018-03-27T22:37:04.270Z,10.17
2018-03-27T22:42:05.472Z,9.33
2018-03-27T22:47:05.920Z,12.53
2018-03-27T22:52:07.128Z,10.97
2018-03-27T22:57:07.571Z,11.13
2018-03-27T23:02:08.786Z,9.70
2018-03-27T23:07:09.258Z,12.80
2018-03-27T23:12:09.691Z,12.90
2018-03-27T23:17:10.136Z,11.30
2018-03-27T23:22:10.588Z,12.10
2018-03-27T23:27:11.036Z,11.70
2018-03-27T23:32:11.509Z,10.83
2018-03-27T23:37:12.703Z,11.17
2018-03-27T23:42:13.170Z,12.73
2018-03-27T23:47:14.368Z,11.50
2018-03-27T23:52:14.816Z,14.40
2018-03-27T23:57:16.028Z,12.93
